Time;durP1;ratioP1;P1;durP2;ratioP2;P2;SDS_P1;SDS_P2;PMS_P1;PMS_P2;Temp;Humidity;BMP_temperature;BMP_pressure;BME280_temperature;BME280_humidity;BME280_pressure;Samples;Min_cycle;Max_cycle;Signal;HPM_P1;HPM_P2
2022/07/26 00:01:37;;;;;;;3.40;1.10;;;;;;;12.77;100.00;101110.97;5050361;28;20495;-85
2022/07/26 00:04:05;;;;;;;4.00;1.35;;;;;;;12.82;100.00;101127.41;5045494;28;20073;-84
2022/07/26 00:06:31;;;;;;;2.40;1.10;;;;;;;12.97;100.00;101128.56;5050433;28;20059;-84
2022/07/26 00:08:58;;;;;;;2.38;1.00;;;;;;;12.98;100.00;101127.66;5050089;28;20051;-84
2022/07/26 00:11:25;;;;;;;5.05;1.25;;;;;;;12.92;100.00;101130.50;5051061;28;20051;-84
2022/07/26 00:13:53;;;;;;;2.63;1.08;;;;;;;12.87;100.00;101112.31;5057667;28;20054;-84
2022/07/26 00:16:20;;;;;;;4.32;1.23;;;;;;;12.90;100.00;101140.25;5049928;28;20172;-84
2022/07/26 00:18:47;;;;;;;3.15;1.20;;;;;;;13.01;100.00;101129.28;5050823;28;20053;-84
2022/07/26 00:21:14;;;;;;;5.40;1.40;;;;;;;12.74;100.00;101137.38;5050512;28;20049;-84
2022/07/26 00:23:40;;;;;;;5.43;1.48;;;;;;;12.34;100.00;101070.66;5052099;28;20088;-84
2022/07/26 00:26:07;;;;;;;3.22;1.15;;;;;;;12.53;100.00;101113.66;5050413;28;20045;-84
2022/07/26 00:28:34;;;;;;;4.32;1.05;;;;;;;12.56;100.00;101107.44;5050161;28;20048;-84
2022/07/26 00:31:02;;;;;;;4.93;1.30;;;;;;;12.25;100.00;101078.91;5049959;28;20247;-84
2022/07/26 00:33:29;;;;;;;2.75;1.00;;;;;;;12.69;100.00;101137.56;5055545;28;20037;-84
2022/07/26 00:35:56;;;;;;;3.50;1.10;;;;;;;12.37;100.00;101119.59;5057458;28;20049;-84
2022/07/26 00:38:23;;;;;;;3.75;1.13;;;;;;;12.61;100.00;101137.03;5054655;28;20917;-84
2022/07/26 00:40:50;;;;;;;3.47;1.00;;;;;;;12.63;100.00;101147.47;5058837;28;20053;-84
2022/07/26 00:43:16;;;;;;;3.58;1.15;;;;;;;12.57;100.00;101161.72;5052643;28;20045;-84
2022/07/26 00:45:43;;;;;;;3.28;1.10;;;;;;;12.67;100.00;101146.41;5059644;28;20061;-84
2022/07/26 00:48:10;;;;;;;2.63;1.00;;;;;;;12.31;100.00;101129.41;5050268;28;20102;-84
2022/07/26 00:50:37;;;;;;;3.05;1.20;;;;;;;12.07;100.00;101104.94;5050399;28;20487;-84
2022/07/26 00:53:04;;;;;;;4.72;1.55;;;;;;;12.40;100.00;101146.59;5049576;28;20045;-84
2022/07/26 00:55:31;;;;;;;2.80;1.10;;;;;;;12.45;100.00;101139.41;5050069;28;20045;-84
2022/07/26 00:58:00;;;;;;;2.85;1.00;;;;;;;12.18;100.00;101124.69;5050956;28;20064;-84
2022/07/26 01:00:27;;;;;;;3.97;1.20;;;;;;;12.26;100.00;101138.38;5049560;28;20052;-84
2022/07/26 01:02:55;;;;;;;3.38;1.05;;;;;;;12.18;100.00;101156.19;5051694;28;20041;-84
2022/07/26 01:05:22;;;;;;;3.15;1.10;;;;;;;12.10;100.00;101146.84;5050237;28;20483;-85
2022/07/26 01:07:50;;;;;;;4.68;1.10;;;;;;;12.23;100.00;101134.09;5063725;28;20462;-84
2022/07/26 01:10:17;;;;;;;4.82;1.20;;;;;;;12.13;100.00;101130.13;5050750;28;20059;-84
2022/07/26 01:12:44;;;;;;;4.10;1.20;;;;;;;12.15;100.00;101139.66;5049584;28;20053;-84
2022/07/26 01:15:12;;;;;;;3.15;1.30;;;;;;;12.12;100.00;101121.38;5049159;28;20049;-84
2022/07/26 01:17:39;;;;;;;3.22;1.20;;;;;;;12.18;100.00;101154.41;5050167;28;20142;-84
2022/07/26 01:20:09;;;;;;;4.07;1.30;;;;;;;12.01;100.00;101144.56;5050163;28;20522;-84
2022/07/26 01:22:36;;;;;;;2.28;1.10;;;;;;;12.12;100.00;101149.41;5049553;28;20071;-84
2022/07/26 01:25:03;;;;;;;3.70;1.40;;;;;;;11.92;100.00;101134.41;5050148;28;20386;-84
2022/07/26 01:27:30;;;;;;;5.22;1.30;;;;;;;12.13;100.00;101149.34;5049700;28;20509;-84
2022/07/26 01:29:59;;;;;;;4.30;1.35;;;;;;;11.98;100.00;101109.72;5049634;28;20115;-84
2022/07/26 01:32:26;;;;;;;4.32;1.27;;;;;;;12.02;100.00;101125.25;5051860;28;20529;-84
2022/07/26 01:34:53;;;;;;;3.45;1.23;;;;;;;11.76;100.00;101132.31;5056134;28;20045;-84
2022/07/26 01:37:20;;;;;;;3.88;1.30;;;;;;;11.94;100.00;101129.97;5053734;28;20052;-85
2022/07/26 01:39:47;;;;;;;2.78;1.10;;;;;;;12.03;100.00;101168.13;5053623;28;20098;-83
2022/07/26 01:42:13;;;;;;;4.82;1.23;;;;;;;11.99;100.00;101153.38;5055169;28;20060;-85
2022/07/26 01:44:40;;;;;;;4.47;1.70;;;;;;;12.08;100.00;101153.91;5066261;28;20398;-84
2022/07/26 01:47:07;;;;;;;3.65;1.30;;;;;;;12.02;100.00;101162.00;5053579;28;20395;-84
2022/07/26 01:49:34;;;;;;;3.22;1.30;;;;;;;11.89;100.00;101134.47;5053280;28;20414;-84
2022/07/26 01:52:01;;;;;;;2.63;1.15;;;;;;;12.07;100.00;101165.31;5052837;28;20051;-84
2022/07/26 01:54:28;;;;;;;3.78;1.33;;;;;;;12.01;100.00;101151.59;5054585;28;20061;-84
2022/07/26 01:56:54;;;;;;;4.78;1.52;;;;;;;12.20;100.00;101168.38;5052786;28;20048;-84
2022/07/26 01:59:21;;;;;;;4.40;1.00;;;;;;;12.11;100.00;101159.06;5052814;28;20509;-84
2022/07/26 02:01:48;;;;;;;3.40;1.10;;;;;;;11.94;100.00;101148.31;5053083;28;20419;-84
2022/07/26 02:07:00;;;;;;;6.57;2.53;;;;;;;11.92;100.00;101164.13;5053786;28;20056;-85
2022/07/26 02:09:31;;;;;;;2.95;1.20;;;;;;;12.02;100.00;101167.25;5052951;28;20136;-84
2022/07/26 02:12:05;;;;;;;6.32;1.60;;;;;;;11.99;100.00;101156.00;5053099;28;20588;-85
2022/07/26 02:14:32;;;;;;;6.10;1.30;;;;;;;11.90;100.00;101155.47;5053902;28;20057;-84
2022/07/26 02:16:59;;;;;;;2.55;1.17;;;;;;;11.88;100.00;101159.88;5054521;28;20411;-85
2022/07/26 02:19:27;;;;;;;8.73;1.50;;;;;;;11.80;100.00;101153.19;5052879;28;20055;-85
2022/07/26 02:21:54;;;;;;;6.22;1.58;;;;;;;11.99;100.00;101169.13;5052274;28;20052;-85
2022/07/26 02:24:21;;;;;;;4.97;1.20;;;;;;;11.86;100.00;101138.06;5058186;28;20041;-85
2022/07/26 02:26:48;;;;;;;4.53;1.25;;;;;;;11.99;100.00;101150.75;5053478;28;20041;-85
2022/07/26 02:29:15;;;;;;;3.17;1.08;;;;;;;11.87;100.00;101163.41;5052371;28;20051;-84
2022/07/26 02:31:42;;;;;;;4.38;1.33;;;;;;;11.84;100.00;101125.91;5052713;28;20057;-84
2022/07/26 02:34:14;;;;;;;6.30;1.50;;;;;;;11.95;100.00;101140.41;5058580;28;20040;-85
2022/07/26 02:36:41;;;;;;;2.67;1.08;;;;;;;11.67;100.00;101114.28;5052104;28;20055;-83
2022/07/26 02:39:07;;;;;;;3.70;1.40;;;;;;;12.09;100.00;101157.38;5058932;28;20052;-83
2022/07/26 02:41:34;;;;;;;4.35;1.33;;;;;;;12.06;100.00;101155.75;5051925;28;20057;-83
2022/07/26 02:44:01;;;;;;;4.05;1.35;;;;;;;12.11;100.00;101156.44;5060955;28;20048;-84
2022/07/26 02:46:28;;;;;;;3.72;1.20;;;;;;;11.99;100.00;101154.25;5053176;28;20048;-84
2022/07/26 02:48:55;;;;;;;3.38;1.38;;;;;;;11.92;100.00;101148.38;5051877;28;20049;-84
2022/07/26 02:51:22;;;;;;;2.85;0.90;;;;;;;11.90;100.00;101152.84;5053039;28;20052;-85
2022/07/26 02:53:48;;;;;;;5.95;1.40;;;;;;;11.91;100.00;101166.78;5054969;28;20049;-85
2022/07/26 02:56:15;;;;;;;4.43;1.35;;;;;;;12.00;100.00;101165.59;5052056;28;20059;-85
2022/07/26 02:58:42;;;;;;;4.07;1.30;;;;;;;11.84;100.00;101160.88;5053318;28;20071;-84
2022/07/26 03:01:09;;;;;;;4.78;1.25;;;;;;;11.85;100.00;101167.00;5052652;28;20380;-84
2022/07/26 03:03:36;;;;;;;7.50;1.52;;;;;;;11.87;100.00;101166.03;5058301;28;20052;-84
2022/07/26 03:06:03;;;;;;;3.30;1.40;;;;;;;11.79;100.00;101154.94;5060324;28;20163;-84
2022/07/26 03:08:30;;;;;;;8.50;1.25;;;;;;;11.85;100.00;101161.75;5056066;28;20047;-84
2022/07/26 03:10:58;;;;;;;2.95;1.10;;;;;;;11.85;100.00;101157.34;5061615;28;20049;-84
2022/07/26 03:13:25;;;;;;;3.80;1.20;;;;;;;11.94;100.00;101171.94;5052256;28;20129;-85
2022/07/26 03:15:52;;;;;;;4.45;1.20;;;;;;;11.84;100.00;101157.41;5057100;28;20055;-84
2022/07/26 03:18:18;;;;;;;3.30;1.20;;;;;;;11.87;100.00;101152.06;5061096;28;20399;-84
2022/07/26 03:20:45;;;;;;;3.67;1.25;;;;;;;11.67;100.00;101106.41;5051355;28;20052;-84
2022/07/26 03:23:12;;;;;;;3.53;1.30;;;;;;;11.61;100.00;101135.47;5050873;28;20076;-84
2022/07/26 03:25:39;;;;;;;5.82;1.23;;;;;;;11.55;100.00;101114.72;5052162;28;20068;-85
2022/07/26 03:28:06;;;;;;;6.40;1.55;;;;;;;11.52;100.00;101117.44;5051987;28;20460;-85
2022/07/26 03:30:33;;;;;;;4.13;1.17;;;;;;;11.72;100.00;101154.31;5053233;28;20060;-84
2022/07/26 03:32:59;;;;;;;4.43;1.20;;;;;;;11.92;100.00;101173.78;5052860;28;20049;-84
2022/07/26 03:35:26;;;;;;;2.67;1.25;;;;;;;12.00;100.00;101166.47;5051485;28;20052;-84
2022/07/26 03:37:53;;;;;;;4.57;1.38;;;;;;;11.80;100.00;101163.69;5051397;28;20048;-84
2022/07/26 03:40:20;;;;;;;3.72;1.10;;;;;;;12.03;100.00;101161.09;5050662;28;20762;-84
2022/07/26 03:42:47;;;;;;;4.85;1.23;;;;;;;12.06;100.00;101170.66;5051310;28;20122;-84
2022/07/26 03:45:15;;;;;;;2.45;1.02;;;;;;;12.23;100.00;101191.84;5051322;28;20079;-84
2022/07/26 03:47:42;;;;;;;3.28;0.93;;;;;;;12.15;100.00;101170.31;5051796;28;20045;-84
2022/07/26 03:50:10;;;;;;;6.30;1.17;;;;;;;12.08;100.00;101176.69;5051123;28;20056;-83
2022/07/26 03:52:37;;;;;;;5.78;1.20;;;;;;;12.26;100.00;101183.03;5051840;28;20406;-83
2022/07/26 03:56:27;;;;;;;4.53;1.52;;;;;;;12.00;100.00;101161.22;5050915;28;20155;-83
2022/07/26 03:57:52;;;;;;;3.22;1.10;;;;;;;12.13;100.00;101174.75;5051611;28;20425;-84
2022/07/26 04:00:19;;;;;;;2.17;1.00;;;;;;;12.15;100.00;101165.06;5050383;28;20055;-84
2022/07/26 04:02:45;;;;;;;3.40;1.13;;;;;;;12.09;100.00;101146.88;5050415;28;20136;-84
2022/07/26 04:05:12;;;;;;;2.55;1.00;;;;;;;12.15;100.00;101163.28;5050269;28;20126;-83
2022/07/26 04:07:43;;;;;;;2.58;1.17;;;;;;;12.21;100.00;101177.09;5052050;28;20503;-84
2022/07/26 04:10:20;;;;;;;3.80;1.10;;;;;;;12.21;100.00;101185.81;5050742;28;20063;-84
2022/07/26 04:12:47;;;;;;;2.35;1.10;;;;;;;12.30;100.00;101188.09;5051193;28;20122;-84
2022/07/26 04:15:15;;;;;;;5.65;1.20;;;;;;;12.42;100.00;101184.16;5053040;28;20124;-84
2022/07/26 04:17:42;;;;;;;4.35;1.38;;;;;;;12.58;100.00;101191.44;5036875;28;20053;-84
2022/07/26 04:20:10;;;;;;;5.03;1.20;;;;;;;12.48;100.00;101189.19;5051797;28;20053;-84
2022/07/26 04:22:38;;;;;;;3.25;1.15;;;;;;;12.27;100.00;101175.09;5050767;28;20396;-84
2022/07/26 04:25:06;;;;;;;3.17;0.98;;;;;;;12.46;100.00;101185.72;5054041;28;20546;-84
2022/07/26 04:27:34;;;;;;;4.00;1.00;;;;;;;12.44;100.00;101199.84;5050322;28;20056;-84
2022/07/26 04:30:01;;;;;;;3.35;1.10;;;;;;;12.51;100.00;101190.81;5061794;28;20048;-84
2022/07/26 04:32:28;;;;;;;5.13;1.30;;;;;;;12.64;100.00;101197.31;5050556;28;20060;-84
2022/07/26 04:34:55;;;;;;;3.25;1.00;;;;;;;12.69;100.00;101210.25;5058109;28;20041;-84
2022/07/26 04:37:22;;;;;;;3.92;1.13;;;;;;;12.61;100.00;101194.81;5050397;28;20471;-84
2022/07/26 04:39:48;;;;;;;6.50;1.45;;;;;;;12.30;100.00;101181.97;5050125;28;20482;-84
2022/07/26 04:42:20;;;;;;;1.77;1.08;;;;;;;12.55;100.00;101216.03;5043740;28;20049;-84
2022/07/26 04:44:47;;;;;;;2.75;1.00;;;;;;;12.37;100.00;101177.38;5059864;28;20048;-84
2022/07/26 04:47:14;;;;;;;3.22;1.20;;;;;;;12.65;100.00;101206.91;5051735;28;20049;-84
2022/07/26 04:49:40;;;;;;;4.68;1.65;;;;;;;12.65;100.00;101199.03;5049982;28;20063;-84
2022/07/26 04:52:07;;;;;;;5.78;1.20;;;;;;;12.61;100.00;101194.81;5050497;28;20055;-85
2022/07/26 04:54:34;;;;;;;2.92;1.00;;;;;;;12.59;100.00;101204.53;5062708;28;20048;-84
2022/07/26 04:57:01;;;;;;;5.75;1.25;;;;;;;12.51;100.00;101198.69;5049880;28;20055;-84
2022/07/26 04:59:27;;;;;;;2.67;1.00;;;;;;;12.28;100.00;101153.16;5050449;28;20507;-84
2022/07/26 05:01:58;;;;;;;5.75;1.30;;;;;;;12.57;100.00;101169.59;5050689;28;20044;-84
2022/07/26 05:04:25;;;;;;;2.72;1.10;;;;;;;12.41;100.00;101165.81;5052270;28;20044;-84
2022/07/26 05:06:52;;;;;;;2.00;0.90;;;;;;;12.48;100.00;101173.44;5053501;28;20471;-84
2022/07/26 05:09:19;;;;;;;3.22;1.35;;;;;;;12.40;100.00;101206.16;5055618;28;20059;-83
2022/07/26 05:11:45;;;;;;;4.32;1.17;;;;;;;12.35;100.00;101182.66;5053990;28;20070;-84
2022/07/26 05:14:12;;;;;;;3.50;1.13;;;;;;;12.47;100.00;101184.84;5055280;28;20041;-84
2022/07/26 05:16:39;;;;;;;4.10;1.30;;;;;;;12.51;100.00;101193.44;5054545;28;20053;-84
2022/07/26 05:19:12;;;;;;;4.82;1.20;;;;;;;12.56;100.00;101173.13;5054390;28;20560;-84
2022/07/26 05:21:38;;;;;;;4.70;1.20;;;;;;;12.41;100.00;101173.69;5055658;28;20642;-83
2022/07/26 05:24:06;;;;;;;3.13;1.20;;;;;;;12.45;100.00;101197.16;5055278;28;20049;-85
2022/07/26 05:26:33;;;;;;;4.72;1.20;;;;;;;12.52;100.00;101203.91;5054102;28;20055;-84
2022/07/26 05:29:00;;;;;;;4.22;1.10;;;;;;;12.62;100.00;101200.91;5053609;28;20501;-85
2022/07/26 05:31:27;;;;;;;4.28;1.20;;;;;;;12.72;100.00;101202.28;5055102;28;20052;-85
2022/07/26 05:33:54;;;;;;;4.80;1.10;;;;;;;12.89;100.00;101210.34;5060395;28;20048;-85
2022/07/26 05:36:21;;;;;;;4.32;1.20;;;;;;;12.77;100.00;101213.47;5054379;28;20049;-85
2022/07/26 05:38:48;;;;;;;4.53;1.20;;;;;;;13.13;100.00;101212.06;5053627;28;20688;-85
2022/07/26 05:41:15;;;;;;;2.80;1.30;;;;;;;13.08;100.00;101209.59;5058425;28;20430;-84
2022/07/26 05:43:41;;;;;;;4.55;1.20;;;;;;;13.39;100.00;101225.00;5058938;28;20415;-85
2022/07/26 05:46:10;;;;;;;4.47;1.45;;;;;;;12.98;100.00;101203.88;5058089;28;20074;-84
2022/07/26 05:48:38;;;;;;;3.58;1.20;;;;;;;13.36;100.00;101230.41;5052389;28;20052;-84
2022/07/26 05:51:05;;;;;;;3.58;1.30;;;;;;;13.40;100.00;101220.59;5053243;28;20049;-84
2022/07/26 05:53:32;;;;;;;4.35;1.67;;;;;;;13.45;100.00;101218.63;5052694;28;20061;-84
2022/07/26 05:56:03;;;;;;;4.53;1.48;;;;;;;13.43;100.00;101231.00;5049971;28;20444;-84
2022/07/26 05:58:30;;;;;;;3.20;1.30;;;;;;;13.62;100.00;101245.09;5048180;28;20659;-84
2022/07/26 06:00:57;;;;;;;4.47;1.45;;;;;;;13.33;100.00;101201.59;5051922;28;20044;-84
2022/07/26 06:03:24;;;;;;;3.88;1.30;;;;;;;13.48;100.00;101219.38;5052617;28;20471;-85
2022/07/26 06:05:56;;;;;;;3.33;1.20;;;;;;;13.57;100.00;101204.13;5054237;28;20045;-85
2022/07/26 06:08:24;;;;;;;4.28;1.30;;;;;;;13.98;100.00;101247.06;5054415;28;20055;-86
2022/07/26 06:10:51;;;;;;;2.80;1.20;;;;;;;13.90;100.00;101229.88;5056907;28;20135;-85
2022/07/26 06:13:18;;;;;;;2.72;1.05;;;;;;;13.82;100.00;101206.53;5052910;28;20052;-86
2022/07/26 06:15:46;;;;;;;2.97;1.10;;;;;;;14.80;100.00;101198.59;5051921;28;20497;-86
2022/07/26 06:18:13;;;;;;;6.88;1.33;;;;;;;14.87;100.00;101207.06;5048846;28;20379;-85
2022/07/26 06:20:41;;;;;;;4.30;1.45;;;;;;;15.41;100.00;101244.84;5053751;28;20074;-85
2022/07/26 06:23:09;;;;;;;7.47;1.30;;;;;;;15.35;100.00;101259.22;5054871;28;20066;-86
2022/07/26 06:25:36;;;;;;;5.75;1.20;;;;;;;14.74;100.00;101257.72;5052280;28;20041;-85
2022/07/26 06:28:04;;;;;;;3.97;1.17;;;;;;;14.59;100.00;101218.94;5068764;28;20049;-85
2022/07/26 06:30:31;;;;;;;4.10;1.13;;;;;;;14.51;100.00;101256.13;5055362;28;20131;-84
2022/07/26 06:32:58;;;;;;;3.67;1.10;;;;;;;14.16;100.00;101240.13;5055439;28;20053;-85
2022/07/26 06:35:29;;;;;;;4.53;1.30;;;;;;;13.86;100.00;101237.94;5051385;28;20171;-83
2022/07/26 06:37:59;;;;;;;2.03;1.08;;;;;;;13.91;100.00;101236.88;5052682;28;20059;-83
2022/07/26 06:40:26;;;;;;;5.22;1.40;;;;;;;14.07;100.00;101269.50;5053856;28;20057;-83
2022/07/26 06:42:55;;;;;;;4.22;1.25;;;;;;;13.77;100.00;101245.38;5048731;28;20045;-83
2022/07/26 06:45:29;;;;;;;5.85;1.70;;;;;;;13.82;100.00;101262.66;5050510;28;20040;-83
2022/07/26 06:47:56;;;;;;;3.70;1.42;;;;;;;13.61;100.00;101284.63;5050049;28;20053;-83
2022/07/26 06:50:22;;;;;;;4.72;1.30;;;;;;;13.48;100.00;101282.50;5051475;28;20049;-83
2022/07/26 06:52:51;;;;;;;7.25;1.40;;;;;;;13.52;100.00;101304.28;5051090;28;20053;-82
2022/07/26 06:55:18;;;;;;;7.70;1.63;;;;;;;13.09;100.00;101251.59;5049142;28;20041;-83
2022/07/26 06:57:45;;;;;;;4.80;1.30;;;;;;;13.54;100.00;101291.91;5051974;28;20041;-83
2022/07/26 07:00:16;;;;;;;3.08;1.20;;;;;;;13.60;100.00;101296.09;5050359;28;20132;-83
2022/07/26 07:02:44;;;;;;;3.55;1.10;;;;;;;13.55;100.00;101298.03;5051325;28;20132;-82
2022/07/26 07:05:11;;;;;;;2.97;1.30;;;;;;;13.29;100.00;101279.72;5051020;28;20049;-83
2022/07/26 07:07:38;;;;;;;3.05;1.15;;;;;;;13.16;100.00;101268.00;5051702;28;20053;-83
2022/07/26 07:10:08;;;;;;;4.40;1.50;;;;;;;13.43;100.00;101299.41;5050427;28;20065;-83
2022/07/26 07:12:38;;;;;;;6.55;1.35;;;;;;;13.67;100.00;101293.13;5050497;28;20453;-83
2022/07/26 07:15:06;;;;;;;4.68;1.25;;;;;;;14.47;100.00;101273.00;5050897;28;20052;-83
2022/07/26 07:17:33;;;;;;;2.88;1.20;;;;;;;15.65;100.00;101281.50;5050917;28;20128;-83
2022/07/26 07:20:02;;;;;;;4.68;1.33;;;;;;;15.99;100.00;101279.81;5050880;28;20049;-83
2022/07/26 07:22:29;;;;;;;5.07;1.38;;;;;;;16.54;100.00;101295.41;5050959;28;20052;-84
2022/07/26 07:24:59;;;;;;;5.18;1.15;;;;;;;17.07;100.00;101299.59;5052703;28;20049;-84
2022/07/26 07:27:28;;;;;;;3.45;1.10;;;;;;;17.07;100.00;101267.00;5051227;28;20052;-83
2022/07/26 07:29:55;;;;;;;4.72;1.10;;;;;;;17.45;100.00;101277.16;5051028;28;20498;-84
2022/07/26 07:32:23;;;;;;;3.67;1.20;;;;;;;17.71;100.00;101280.09;5045807;28;20052;-84
2022/07/26 07:34:50;;;;;;;2.75;1.00;;;;;;;17.45;100.00;101280.66;5050078;28;20052;-84
2022/07/26 07:37:17;;;;;;;3.35;0.98;;;;;;;17.69;100.00;101289.91;5051712;28;20045;-84
2022/07/26 07:39:46;;;;;;;2.30;0.85;;;;;;;17.82;100.00;101310.28;5053639;28;20469;-84
2022/07/26 07:42:16;;;;;;;2.92;1.10;;;;;;;17.41;100.00;101300.31;5049471;28;20095;-84
2022/07/26 07:44:43;;;;;;;2.65;1.00;;;;;;;16.98;100.00;101278.06;5049669;28;20131;-84
2022/07/26 07:47:10;;;;;;;4.45;1.40;;;;;;;16.97;100.00;101260.50;5049712;28;20052;-84
2022/07/26 07:49:38;;;;;;;3.08;1.00;;;;;;;16.33;100.00;101276.28;5050877;28;20053;-84
2022/07/26 07:52:05;;;;;;;4.97;1.25;;;;;;;16.04;100.00;101310.38;5042780;28;20582;-86
2022/07/26 07:54:32;;;;;;;1.70;0.88;;;;;;;15.79;100.00;101291.41;5049674;28;20132;-86
2022/07/26 07:56:58;;;;;;;4.35;1.20;;;;;;;15.76;100.00;101287.16;5061467;28;20049;-86
2022/07/26 07:59:26;;;;;;;6.20;1.15;;;;;;;16.05;100.00;101314.69;5047089;28;20059;-86
2022/07/26 08:01:54;;;;;;;3.60;1.20;;;;;;;16.10;100.00;101286.25;5047091;28;20123;-85
2022/07/26 08:04:21;;;;;;;2.08;1.05;;;;;;;16.43;100.00;101303.06;5048097;28;20045;-85
2022/07/26 08:06:48;;;;;;;3.55;1.15;;;;;;;16.39;100.00;101302.34;5046020;28;20045;-86
2022/07/26 08:09:17;;;;;;;3.75;1.30;;;;;;;16.50;100.00;101338.78;5050231;28;20447;-85
2022/07/26 08:11:44;;;;;;;5.93;1.40;;;;;;;16.14;100.00;101306.28;5047706;28;20052;-85
2022/07/26 08:14:17;;;;;;;3.13;1.17;;;;;;;16.41;100.00;101291.72;5047406;28;20076;-86
2022/07/26 08:16:43;;;;;;;4.75;1.23;;;;;;;16.73;100.00;101328.78;5050671;28;20053;-86
2022/07/26 08:19:10;;;;;;;3.42;1.30;;;;;;;17.02;100.00;101272.53;5044970;28;20049;-87
2022/07/26 08:21:38;;;;;;;3.85;1.20;;;;;;;17.23;100.00;101293.44;5049531;28;20052;-86
2022/07/26 08:24:05;;;;;;;4.57;1.23;;;;;;;17.89;100.00;101302.03;5051157;28;20056;-86
2022/07/26 08:26:32;;;;;;;4.03;1.20;;;;;;;16.83;100.00;101322.06;5050135;28;20460;-87
2022/07/26 08:28:59;;;;;;;3.33;1.30;;;;;;;17.49;100.00;101330.78;5050161;28;20057;-86
2022/07/26 08:31:29;;;;;;;3.15;1.27;;;;;;;17.68;100.00;101282.91;5050978;28;20135;-86
2022/07/26 08:33:56;;;;;;;4.47;1.40;;;;;;;17.60;100.00;101283.34;5049327;28;20136;-87
2022/07/26 08:36:24;;;;;;;5.95;1.33;;;;;;;17.38;100.00;101311.06;5050138;28;20128;-86
2022/07/26 08:38:58;;;;;;;5.53;1.23;;;;;;;17.14;100.00;101302.75;5050195;28;20077;-86
2022/07/26 08:41:25;;;;;;;4.13;1.20;;;;;;;16.50;100.00;101301.78;5050459;28;20059;-87
2022/07/26 08:43:52;;;;;;;4.40;1.23;;;;;;;16.20;100.00;101313.06;5054932;28;20086;-86
2022/07/26 08:46:23;;;;;;;6.68;1.30;;;;;;;16.73;100.00;101337.56;5050451;28;20055;-86
2022/07/26 08:48:55;;;;;;;2.88;1.02;;;;;;;16.64;100.00;101319.56;5050267;28;20063;-85
2022/07/26 08:51:23;;;;;;;3.58;1.30;;;;;;;16.56;100.00;101343.78;5047367;28;20053;-86
2022/07/26 08:53:54;;;;;;;3.47;1.13;;;;;;;16.79;100.00;101321.38;5045989;28;20139;-87
2022/07/26 08:56:30;;;;;;;5.22;1.17;;;;;;;16.02;100.00;101348.34;5051227;28;20048;-84
2022/07/26 08:58:57;;;;;;;3.80;1.30;;;;;;;15.68;100.00;101356.13;5050214;28;20155;-86
2022/07/26 09:01:26;;;;;;;4.03;1.42;;;;;;;15.51;100.00;101371.91;5052663;28;20056;-85
2022/07/26 09:03:53;;;;;;;6.72;1.30;;;;;;;15.67;100.00;101372.03;5053861;28;20106;-85
2022/07/26 09:06:21;;;;;;;5.43;1.40;;;;;;;15.38;100.00;101347.91;5050191;28;20049;-85
2022/07/26 09:09:09;;;;;;;5.22;1.30;;;;;;;15.77;100.00;101348.72;5046232;28;20132;-86
2022/07/26 09:11:36;;;;;;;3.63;1.15;;;;;;;15.48;100.00;101322.78;5048200;28;20056;-86
2022/07/26 09:14:05;;;;;;;4.43;1.20;;;;;;;15.71;100.00;101353.34;5049879;28;20064;-85
2022/07/26 09:16:32;;;;;;;2.00;0.90;;;;;;;15.73;100.00;101380.50;5049030;28;20143;-86
2022/07/26 09:19:17;;;;;;;2.43;1.00;;;;;;;15.73;100.00;101375.22;5048784;28;20506;-86
2022/07/26 09:21:45;;;;;;;3.88;1.10;;;;;;;16.17;100.00;101373.13;5049254;28;20095;-85
2022/07/26 09:24:28;;;;;;;3.13;1.10;;;;;;;16.29;100.00;101369.88;5051198;28;20140;-85
2022/07/26 09:26:55;;;;;;;2.47;1.10;;;;;;;16.84;100.00;101358.19;5049664;28;20049;-86
2022/07/26 09:29:22;;;;;;;2.35;1.00;;;;;;;16.56;100.00;101345.56;5045642;28;20046;-86
2022/07/26 09:31:49;;;;;;;2.35;0.88;;;;;;;16.79;100.00;101370.78;5042871;28;20045;-85
2022/07/26 09:34:34;;;;;;;3.85;1.17;;;;;;;16.26;100.00;101351.53;5050910;28;20055;-85
2022/07/26 09:37:02;;;;;;;1.80;0.93;;;;;;;16.83;100.00;101343.22;5050901;28;20049;-85
2022/07/26 09:39:31;;;;;;;1.80;0.80;;;;;;;16.76;100.00;101340.03;5048424;28;20053;-86
2022/07/26 09:42:07;;;;;;;2.17;0.98;;;;;;;17.55;100.00;101384.25;5050275;28;20052;-86
2022/07/26 09:44:55;;;;;;;3.65;1.02;;;;;;;17.26;100.00;101383.22;5059509;28;20506;-85
2022/07/26 09:47:22;;;;;;;3.08;0.93;;;;;;;16.97;100.00;101383.03;5051104;28;20048;-85
2022/07/26 09:50:07;;;;;;;1.83;0.90;;;;;;;16.95;100.00;101389.34;5049847;28;20061;-86
2022/07/26 09:52:37;;;;;;;2.95;1.00;;;;;;;16.54;100.00;101364.16;5068341;28;20049;-86
2022/07/26 09:55:06;;;;;;;2.45;0.80;;;;;;;16.73;100.00;101371.94;5055564;28;20405;-85
2022/07/26 09:57:34;;;;;;;6.75;1.25;;;;;;;15.64;100.00;101375.69;5043093;28;20050;-85
2022/07/26 10:00:05;;;;;;;2.83;1.00;;;;;;;16.51;100.00;101394.22;5051837;28;20051;-85
2022/07/26 10:02:33;;;;;;;2.88;1.00;;;;;;;17.04;100.00;101354.47;5057417;28;20055;-85
2022/07/26 10:05:00;;;;;;;2.90;0.90;;;;;;;16.82;100.00;101379.41;5051713;28;20053;-85
2022/07/26 10:07:27;;;;;;;5.97;1.30;;;;;;;16.39;100.00;101357.00;5060910;28;20044;-84
2022/07/26 10:10:06;;;;;;;3.53;0.90;;;;;;;16.94;100.00;101354.09;5054872;28;20710;-84
2022/07/26 10:12:33;;;;;;;2.90;1.13;;;;;;;17.25;100.00;101363.00;5056960;28;21203;-84
2022/07/26 10:15:01;;;;;;;5.38;1.30;;;;;;;16.55;100.00;101367.63;5053882;28;20067;-84
2022/07/26 10:17:27;;;;;;;2.75;1.08;;;;;;;16.89;100.00;101407.25;5053882;28;20045;-84
2022/07/26 10:20:03;;;;;;;2.08;0.90;;;;;;;16.51;100.00;101396.03;5052690;28;20056;-84
2022/07/26 10:22:45;;;;;;;2.15;0.90;;;;;;;16.31;100.00;101357.44;5068253;28;20049;-84
2022/07/26 10:25:18;;;;;;;2.08;0.90;;;;;;;16.44;100.00;101405.19;5051948;28;20129;-84
2022/07/26 10:27:56;;;;;;;;;;;;;;;16.35;100.00;101409.16;5054918;28;20410;-84
2022/07/26 10:30:25;;;;;;;2.15;0.90;;;;;;;16.48;100.00;101388.25;5039792;28;19920;-86
2022/07/26 10:33:01;;;;;;;3.20;1.00;;;;;;;17.22;100.00;101358.72;5049835;28;20497;-85
2022/07/26 10:35:35;;;;;;;3.45;1.08;;;;;;;18.01;100.00;101394.88;5052936;28;20131;-85
2022/07/26 10:38:08;;;;;;;2.03;0.80;;;;;;;18.16;100.00;101402.88;5065278;28;20048;-85
2022/07/26 10:40:36;;;;;;;1.65;0.80;;;;;;;18.15;100.00;101395.84;5046081;28;20407;-85
2022/07/26 10:43:14;;;;;;;3.30;0.90;;;;;;;17.14;100.00;101374.19;5061982;28;20059;-85
2022/07/26 10:46:19;;;;;;;1.92;0.90;;;;;;;17.84;100.00;101398.44;5042896;28;20041;-85
2022/07/26 10:49:07;;;;;;;2.67;0.98;;;;;;;17.96;100.00;101407.53;5044726;28;20049;-85
2022/07/26 10:51:36;;;;;;;1.70;0.70;;;;;;;18.00;100.00;101355.22;5053594;28;20053;-86
2022/07/26 10:54:11;;;;;;;2.58;1.00;;;;;;;17.94;100.00;101364.38;5058042;28;20735;-85
2022/07/26 10:56:39;;;;;;;2.97;1.00;;;;;;;17.89;100.00;101414.13;5050734;28;20466;-84
2022/07/26 10:59:06;;;;;;;3.95;0.98;;;;;;;17.50;100.00;101354.53;5051939;28;20053;-85
2022/07/26 11:01:34;;;;;;;1.75;0.93;;;;;;;18.09;100.00;101420.06;5051781;28;20111;-85
2022/07/26 11:04:01;;;;;;;2.70;0.88;;;;;;;18.10;100.00;101388.19;5052756;28;20056;-85
2022/07/26 11:06:29;;;;;;;2.00;0.80;;;;;;;18.13;100.00;101401.25;5052583;28;20041;-85
2022/07/26 11:08:55;;;;;;;1.25;0.80;;;;;;;17.99;100.00;101374.72;5049046;28;20045;-85
2022/07/26 11:11:30;;;;;;;3.90;1.08;;;;;;;18.16;100.00;101416.09;5053480;28;20424;-85
2022/07/26 11:14:08;;;;;;;2.45;1.08;;;;;;;18.37;100.00;101414.00;5049271;28;20497;-85
2022/07/26 11:16:41;;;;;;;3.88;0.98;;;;;;;18.16;100.00;101418.75;5050664;28;20551;-85
2022/07/26 11:19:15;;;;;;;3.00;1.00;;;;;;;17.93;100.00;101422.75;5054008;28;20041;-85
2022/07/26 11:21:44;;;;;;;2.95;1.00;;;;;;;18.11;100.00;101381.91;5052892;28;20281;-85
2022/07/26 11:24:11;;;;;;;4.07;0.98;;;;;;;18.37;100.00;101429.91;5051382;28;20084;-84
2022/07/26 11:26:44;;;;;;;2.55;0.90;;;;;;;17.88;100.00;101438.91;5057230;28;20075;-85